sensor_id;sensor_type;location;lat;lon;timestamp;pressure;altitude;pressure_sealevel;temperature;humidity
6144;BME280;3103;49.492;8.474;2023-04-07T00:00:24;100550.50;;;9.12;83.52
6144;BME280;3103;49.492;8.474;2023-04-07T00:02:52;100548.28;;;9.39;83.17
6144;BME280;3103;49.492;8.474;2023-04-07T00:05:19;100542.47;;;9.12;83.92
6144;BME280;3103;49.492;8.474;2023-04-07T00:07:46;100541.38;;;9.02;84.71
6144;BME280;3103;49.492;8.474;2023-04-07T00:10:23;100546.97;;;9.30;83.51
6144;BME280;3103;49.492;8.474;2023-04-07T00:12:50;100545.47;;;9.34;82.79
6144;BME280;3103;49.492;8.474;2023-04-07T00:15:17;100540.66;;;9.25;83.74
6144;BME280;3103;49.492;8.474;2023-04-07T00:17:44;100546.31;;;9.46;82.45
6144;BME280;3103;49.492;8.474;2023-04-07T00:20:11;100537.94;;;9.55;81.63
6144;BME280;3103;49.492;8.474;2023-04-07T00:22:37;100535.72;;;9.51;81.35
6144;BME280;3103;49.492;8.474;2023-04-07T00:25:05;100532.38;;;9.26;82.22
6144;BME280;3103;49.492;8.474;2023-04-07T00:27:31;100537.16;;;9.24;82.63
6144;BME280;3103;49.492;8.474;2023-04-07T00:29:58;100532.59;;;9.25;83.46
6144;BME280;3103;49.492;8.474;2023-04-07T00:32:25;100515.59;;;9.19;83.69
6144;BME280;3103;49.492;8.474;2023-04-07T00:34:51;100512.44;;;9.22;82.83
6144;BME280;3103;49.492;8.474;2023-04-07T00:37:18;100507.66;;;9.24;83.04
6144;BME280;3103;49.492;8.474;2023-04-07T00:39:45;100504.22;;;9.05;84.90
6144;BME280;3103;49.492;8.474;2023-04-07T00:42:12;100509.13;;;9.08;84.27
6144;BME280;3103;49.492;8.474;2023-04-07T00:44:39;100499.72;;;8.87;85.04
6144;BME280;3103;49.492;8.474;2023-04-07T00:47:07;100492.88;;;8.91;84.55
6144;BME280;3103;49.492;8.474;2023-04-07T00:49:33;100491.81;;;8.92;84.84
6144;BME280;3103;49.492;8.474;2023-04-07T00:52:03;100479.88;;;8.77;86.14
6144;BME280;3103;49.492;8.474;2023-04-07T00:54:30;100483.31;;;8.96;85.25
6144;BME280;3103;49.492;8.474;2023-04-07T00:56:56;100484.50;;;9.00;85.99
6144;BME280;3103;49.492;8.474;2023-04-07T00:59:24;100477.31;;;8.82;86.29
6144;BME280;3103;49.492;8.474;2023-04-07T01:02:02;100475.19;;;8.72;86.35
6144;BME280;3103;49.492;8.474;2023-04-07T01:04:36;100481.50;;;8.78;86.56
6144;BME280;3103;49.492;8.474;2023-04-07T01:07:10;100479.31;;;8.86;86.11
6144;BME280;3103;49.492;8.474;2023-04-07T01:09:53;100469.97;;;9.07;85.22
6144;BME280;3103;49.492;8.474;2023-04-07T01:12:55;100465.31;;;9.03;85.12
6144;BME280;3103;49.492;8.474;2023-04-07T01:15:26;100461.94;;;9.07;84.46
6144;BME280;3103;49.492;8.474;2023-04-07T01:18:12;100466.78;;;8.99;84.69
6144;BME280;3103;49.492;8.474;2023-04-07T01:20:42;100455.75;;;9.07;84.47
6144;BME280;3103;49.492;8.474;2023-04-07T01:23:17;100459.72;;;9.04;85.18
6144;BME280;3103;49.492;8.474;2023-04-07T01:26:03;100456.66;;;9.01;84.49
6144;BME280;3103;49.492;8.474;2023-04-07T01:31:03;100446.66;;;9.08;85.34
6144;BME280;3103;49.492;8.474;2023-04-07T01:33:31;100441.41;;;9.01;84.97
6144;BME280;3103;49.492;8.474;2023-04-07T01:35:59;100444.34;;;9.11;84.32
6144;BME280;3103;49.492;8.474;2023-04-07T01:38:28;100439.91;;;9.05;84.13
6144;BME280;3103;49.492;8.474;2023-04-07T01:40:57;100442.34;;;9.07;83.88
6144;BME280;3103;49.492;8.474;2023-04-07T01:43:25;100440.47;;;9.07;84.65
6144;BME280;3103;49.492;8.474;2023-04-07T01:45:54;100436.66;;;9.27;83.73
6144;BME280;3103;49.492;8.474;2023-04-07T01:48:22;100440.97;;;9.28;82.85
6144;BME280;3103;49.492;8.474;2023-04-07T01:50:50;100433.88;;;9.21;83.49
6144;BME280;3103;49.492;8.474;2023-04-07T01:53:17;100439.47;;;9.20;82.70
6144;BME280;3103;49.492;8.474;2023-04-07T01:55:44;100438.69;;;9.31;82.92
6144;BME280;3103;49.492;8.474;2023-04-07T01:58:11;100433.84;;;9.10;82.01
6144;BME280;3103;49.492;8.474;2023-04-07T02:00:41;100434.44;;;9.12;82.43
6144;BME280;3103;49.492;8.474;2023-04-07T02:03:27;100429.22;;;9.17;82.98
6144;BME280;3103;49.492;8.474;2023-04-07T02:06:07;100428.78;;;9.32;82.32
6144;BME280;3103;49.492;8.474;2023-04-07T02:08:35;100429.38;;;9.45;81.60
6144;BME280;3103;49.492;8.474;2023-04-07T02:11:08;100424.91;;;9.16;81.76
6144;BME280;3103;49.492;8.474;2023-04-07T02:13:37;100420.81;;;9.25;82.33
6144;BME280;3103;49.492;8.474;2023-04-07T02:16:28;100424.28;;;9.02;83.20
6144;BME280;3103;49.492;8.474;2023-04-07T02:18:57;100424.91;;;9.16;83.16
6144;BME280;3103;49.492;8.474;2023-04-07T02:21:24;100421.97;;;9.06;82.18
6144;BME280;3103;49.492;8.474;2023-04-07T02:23:52;100426.16;;;9.13;82.29
6144;BME280;3103;49.492;8.474;2023-04-07T02:26:19;100426.38;;;9.12;82.24
6144;BME280;3103;49.492;8.474;2023-04-07T02:28:47;100421.88;;;8.82;83.11
6144;BME280;3103;49.492;8.474;2023-04-07T02:31:16;100413.25;;;8.80;84.39
6144;BME280;3103;49.492;8.474;2023-04-07T02:33:43;100411.41;;;8.81;85.03
6144;BME280;3103;49.492;8.474;2023-04-07T02:36:11;100405.03;;;8.93;83.52
6144;BME280;3103;49.492;8.474;2023-04-07T02:38:37;100414.69;;;8.95;84.10
6144;BME280;3103;49.492;8.474;2023-04-07T02:41:04;100409.34;;;8.95;83.55
6144;BME280;3103;49.492;8.474;2023-04-07T02:43:32;100414.13;;;8.92;84.05
6144;BME280;3103;49.492;8.474;2023-04-07T02:45:59;100410.13;;;8.83;84.21
6144;BME280;3103;49.492;8.474;2023-04-07T02:48:26;100405.22;;;8.80;84.29
6144;BME280;3103;49.492;8.474;2023-04-07T02:50:52;100410.66;;;9.04;83.33
6144;BME280;3103;49.492;8.474;2023-04-07T02:53:19;100406.38;;;8.84;83.30
6144;BME280;3103;49.492;8.474;2023-04-07T02:55:45;100396.84;;;8.77;84.14
6144;BME280;3103;49.492;8.474;2023-04-07T02:58:12;100399.75;;;8.75;84.07
6144;BME280;3103;49.492;8.474;2023-04-07T03:00:42;100408.38;;;8.77;84.29
6144;BME280;3103;49.492;8.474;2023-04-07T03:03:13;100395.97;;;8.65;84.87
6144;BME280;3103;49.492;8.474;2023-04-07T03:05:46;100390.97;;;8.68;85.51
6144;BME280;3103;49.492;8.474;2023-04-07T03:08:13;100397.03;;;8.63;84.43
6144;BME280;3103;49.492;8.474;2023-04-07T03:10:40;100392.06;;;8.79;84.01
6144;BME280;3103;49.492;8.474;2023-04-07T03:13:08;100391.31;;;8.60;83.39
6144;BME280;3103;49.492;8.474;2023-04-07T03:15:36;100388.06;;;8.70;82.77
6144;BME280;3103;49.492;8.474;2023-04-07T03:18:03;100396.31;;;8.68;83.21
6144;BME280;3103;49.492;8.474;2023-04-07T03:20:30;100402.72;;;8.67;82.71
6144;BME280;3103;49.492;8.474;2023-04-07T03:23:02;100387.06;;;8.82;82.84
6144;BME280;3103;49.492;8.474;2023-04-07T03:25:29;100384.72;;;8.74;82.25
6144;BME280;3103;49.492;8.474;2023-04-07T03:27:56;100371.78;;;8.83;82.58
6144;BME280;3103;49.492;8.474;2023-04-07T03:30:26;100377.47;;;8.63;82.65
6144;BME280;3103;49.492;8.474;2023-04-07T03:32:52;100374.97;;;8.91;82.54
6144;BME280;3103;49.492;8.474;2023-04-07T03:35:20;100380.22;;;8.98;82.14
6144;BME280;3103;49.492;8.474;2023-04-07T03:37:46;100383.13;;;8.97;82.55
6144;BME280;3103;49.492;8.474;2023-04-07T03:40:16;100378.38;;;9.10;82.21
6144;BME280;3103;49.492;8.474;2023-04-07T03:42:44;100377.75;;;8.97;82.60
6144;BME280;3103;49.492;8.474;2023-04-07T03:45:13;100374.53;;;9.06;82.92
6144;BME280;3103;49.492;8.474;2023-04-07T03:47:44;100383.47;;;8.88;82.81
6144;BME280;3103;49.492;8.474;2023-04-07T03:50:12;100377.31;;;8.88;82.20
6144;BME280;3103;49.492;8.474;2023-04-07T03:52:49;100382.81;;;8.63;83.97
6144;BME280;3103;49.492;8.474;2023-04-07T03:55:23;100378.66;;;8.79;84.16
6144;BME280;3103;49.492;8.474;2023-04-07T03:57:55;100382.34;;;8.66;84.08
6144;BME280;3103;49.492;8.474;2023-04-07T04:00:23;100384.53;;;8.87;83.23
6144;BME280;3103;49.492;8.474;2023-04-07T04:03:03;100388.44;;;8.73;84.13
6144;BME280;3103;49.492;8.474;2023-04-07T04:05:31;100393.06;;;8.66;84.59
6144;BME280;3103;49.492;8.474;2023-04-07T04:07:58;100381.22;;;8.74;83.98
6144;BME280;3103;49.492;8.474;2023-04-07T04:10:26;100386.00;;;8.83;83.51
6144;BME280;3103;49.492;8.474;2023-04-07T04:12:53;100393.72;;;8.91;83.12
6144;BME280;3103;49.492;8.474;2023-04-07T04:15:21;100382.28;;;8.84;83.61
6144;BME280;3103;49.492;8.474;2023-04-07T04:17:49;100389.63;;;8.77;83.94
6144;BME280;3103;49.492;8.474;2023-04-07T04:20:17;100394.56;;;9.04;82.70
6144;BME280;3103;49.492;8.474;2023-04-07T04:22:49;100390.06;;;8.74;83.22
6144;BME280;3103;49.492;8.474;2023-04-07T04:25:16;100389.16;;;8.80;83.86
6144;BME280;3103;49.492;8.474;2023-04-07T04:27:47;100400.31;;;8.77;82.80
6144;BME280;3103;49.492;8.474;2023-04-07T04:30:20;100393.34;;;8.76;83.51
6144;BME280;3103;49.492;8.474;2023-04-07T04:32:54;100391.66;;;8.63;84.49
6144;BME280;3103;49.492;8.474;2023-04-07T04:35:29;100383.09;;;8.73;84.08
6144;BME280;3103;49.492;8.474;2023-04-07T04:38:05;100395.59;;;8.91;83.12
6144;BME280;3103;49.492;8.474;2023-04-07T04:40:37;100395.88;;;8.71;84.15
6144;BME280;3103;49.492;8.474;2023-04-07T04:43:04;100401.16;;;8.78;83.68
6144;BME280;3103;49.492;8.474;2023-04-07T04:45:35;100391.50;;;8.88;84.14
6144;BME280;3103;49.492;8.474;2023-04-07T04:48:02;100387.22;;;8.87;82.99
6144;BME280;3103;49.492;8.474;2023-04-07T04:50:29;100388.22;;;8.86;82.37
6144;BME280;3103;49.492;8.474;2023-04-07T04:52:56;100390.19;;;8.79;83.39
6144;BME280;3103;49.492;8.474;2023-04-07T04:55:23;100387.97;;;8.76;83.25
6144;BME280;3103;49.492;8.474;2023-04-07T04:57:51;100393.84;;;8.97;82.78
6144;BME280;3103;49.492;8.474;2023-04-07T05:00:27;100392.94;;;9.14;81.84
6144;BME280;3103;49.492;8.474;2023-04-07T05:02:59;100393.72;;;8.91;82.83
6144;BME280;3103;49.492;8.474;2023-04-07T05:05:26;100396.03;;;8.76;83.14
6144;BME280;3103;49.492;8.474;2023-04-07T05:07:54;100400.75;;;8.62;83.45
6144;BME280;3103;49.492;8.474;2023-04-07T05:10:23;100397.72;;;8.71;83.36
6144;BME280;3103;49.492;8.474;2023-04-07T05:12:50;100397.03;;;8.63;83.77
6144;BME280;3103;49.492;8.474;2023-04-07T05:15:17;100387.81;;;8.59;84.54
6144;BME280;3103;49.492;8.474;2023-04-07T05:17:47;100404.81;;;8.65;84.40
6144;BME280;3103;49.492;8.474;2023-04-07T05:20:21;100394.00;;;8.72;84.10
6144;BME280;3103;49.492;8.474;2023-04-07T05:22:48;100389.69;;;8.71;84.05
6144;BME280;3103;49.492;8.474;2023-04-07T05:25:17;100383.72;;;8.87;83.66
6144;BME280;3103;49.492;8.474;2023-04-07T05:27:45;100383.47;;;8.88;83.09
6144;BME280;3103;49.492;8.474;2023-04-07T05:30:14;100386.28;;;8.93;82.93
6144;BME280;3103;49.492;8.474;2023-04-07T05:32:41;100389.06;;;8.99;82.91
6144;BME280;3103;49.492;8.474;2023-04-07T05:35:17;100381.66;;;9.24;81.58
6144;BME280;3103;49.492;8.474;2023-04-07T05:37:50;100381.84;;;8.99;81.63
6144;BME280;3103;49.492;8.474;2023-04-07T05:40:17;100377.69;;;9.03;81.93
6144;BME280;3103;49.492;8.474;2023-04-07T05:42:44;100381.94;;;8.81;82.70
6144;BME280;3103;49.492;8.474;2023-04-07T05:45:12;100378.19;;;8.82;83.32
6144;BME280;3103;49.492;8.474;2023-04-07T05:47:41;100385.09;;;8.89;82.40
6144;BME280;3103;49.492;8.474;2023-04-07T05:50:10;100382.22;;;9.03;82.40
6144;BME280;3103;49.492;8.474;2023-04-07T05:52:39;100382.88;;;8.86;82.27
6144;BME280;3103;49.492;8.474;2023-04-07T05:55:17;100385.97;;;9.02;82.44
6144;BME280;3103;49.492;8.474;2023-04-07T05:57:44;100391.19;;;9.08;82.48
6144;BME280;3103;49.492;8.474;2023-04-07T06:00:11;100378.63;;;9.20;81.96
6144;BME280;3103;49.492;8.474;2023-04-07T06:02:43;100383.06;;;9.15;81.74
6144;BME280;3103;49.492;8.474;2023-04-07T06:05:15;100390.63;;;9.18;81.41
6144;BME280;3103;49.492;8.474;2023-04-07T06:07:43;100390.59;;;8.95;82.42
6144;BME280;3103;49.492;8.474;2023-04-07T06:10:10;100397.69;;;9.01;82.89
6144;BME280;3103;49.492;8.474;2023-04-07T06:12:38;100396.22;;;9.05;83.36
6144;BME280;3103;49.492;8.474;2023-04-07T06:15:05;100396.56;;;9.08;82.97
6144;BME280;3103;49.492;8.474;2023-04-07T06:17:32;100401.25;;;9.25;81.88
6144;BME280;3103;49.492;8.474;2023-04-07T06:19:58;100407.81;;;8.99;82.87
6144;BME280;3103;49.492;8.474;2023-04-07T06:22:25;100403.78;;;9.08;82.54
6144;BME280;3103;49.492;8.474;2023-04-07T06:24:52;100403.91;;;9.13;82.33
6144;BME280;3103;49.492;8.474;2023-04-07T06:27:20;100402.94;;;8.96;83.18
6144;BME280;3103;49.492;8.474;2023-04-07T06:29:47;100398.03;;;8.92;83.08
6144;BME280;3103;49.492;8.474;2023-04-07T06:32:13;100400.97;;;9.03;82.52
6144;BME280;3103;49.492;8.474;2023-04-07T06:34:40;100399.94;;;9.04;83.50
6144;BME280;3103;49.492;8.474;2023-04-07T06:37:07;100399.13;;;9.03;83.10
6144;BME280;3103;49.492;8.474;2023-04-07T06:39:34;100399.72;;;9.17;83.10
6144;BME280;3103;49.492;8.474;2023-04-07T06:42:01;100398.09;;;9.28;82.00
6144;BME280;3103;49.492;8.474;2023-04-07T06:44:34;100397.19;;;9.34;80.85
6144;BME280;3103;49.492;8.474;2023-04-07T06:47:01;100398.31;;;9.26;81.76
6144;BME280;3103;49.492;8.474;2023-04-07T06:49:27;100405.66;;;9.19;81.73
6144;BME280;3103;49.492;8.474;2023-04-07T06:51:54;100398.69;;;9.30;81.55
6144;BME280;3103;49.492;8.474;2023-04-07T06:54:21;100412.09;;;9.41;81.17
6144;BME280;3103;49.492;8.474;2023-04-07T06:56:48;100398.91;;;9.40;81.25
6144;BME280;3103;49.492;8.474;2023-04-07T06:59:14;100404.41;;;9.33;81.31
6144;BME280;3103;49.492;8.474;2023-04-07T07:01:41;100405.34;;;9.62;80.26
6144;BME280;3103;49.492;8.474;2023-04-07T07:04:09;100397.97;;;9.69;79.41
6144;BME280;3103;49.492;8.474;2023-04-07T07:06:36;100407.91;;;9.80;78.17
6144;BME280;3103;49.492;8.474;2023-04-07T07:09:03;100412.53;;;9.85;78.19
6144;BME280;3103;49.492;8.474;2023-04-07T07:11:29;100414.22;;;9.74;79.03
6144;BME280;3103;49.492;8.474;2023-04-07T07:13:56;100410.47;;;9.87;78.31
6144;BME280;3103;49.492;8.474;2023-04-07T07:16:23;100406.25;;;10.03;77.64
6144;BME280;3103;49.492;8.474;2023-04-07T07:18:50;100405.91;;;9.99;77.29
6144;BME280;3103;49.492;8.474;2023-04-07T07:21:17;100405.91;;;9.88;78.06
6144;BME280;3103;49.492;8.474;2023-04-07T07:23:44;100395.63;;;9.85;78.92
6144;BME280;3103;49.492;8.474;2023-04-07T07:26:11;100401.66;;;10.27;77.67
6144;BME280;3103;49.492;8.474;2023-04-07T07:28:39;100401.03;;;10.36;76.97
6144;BME280;3103;49.492;8.474;2023-04-07T07:31:12;100403.25;;;10.39;76.92
6144;BME280;3103;49.492;8.474;2023-04-07T07:33:40;100401.72;;;10.72;75.24
6144;BME280;3103;49.492;8.474;2023-04-07T07:36:09;100402.59;;;10.61;75.15
6144;BME280;3103;49.492;8.474;2023-04-07T07:38:36;100392.44;;;10.23;75.91
6144;BME280;3103;49.492;8.474;2023-04-07T07:41:04;100404.94;;;10.29;75.80
6144;BME280;3103;49.492;8.474;2023-04-07T07:43:31;100403.00;;;10.41;76.47
6144;BME280;3103;49.492;8.474;2023-04-07T07:45:58;100413.09;;;10.62;75.01
6144;BME280;3103;49.492;8.474;2023-04-07T07:48:25;100413.22;;;10.16;75.91
6144;BME280;3103;49.492;8.474;2023-04-07T07:50:51;100407.78;;;9.87;77.69
6144;BME280;3103;49.492;8.474;2023-04-07T07:53:18;100409.28;;;9.83;78.43
6144;BME280;3103;49.492;8.474;2023-04-07T07:55:45;100409.63;;;9.98;77.52
6144;BME280;3103;49.492;8.474;2023-04-07T07:58:12;100418.81;;;10.26;76.92
6144;BME280;3103;49.492;8.474;2023-04-07T08:00:39;100417.69;;;10.79;74.66
6144;BME280;3103;49.492;8.474;2023-04-07T08:03:06;100414.91;;;11.02;74.36
6144;BME280;3103;49.492;8.474;2023-04-07T08:05:33;100418.47;;;10.91;73.20
6144;BME280;3103;49.492;8.474;2023-04-07T08:08:00;100417.88;;;10.89;73.90
6144;BME280;3103;49.492;8.474;2023-04-07T08:10:27;100418.25;;;11.59;71.74
6144;BME280;3103;49.492;8.474;2023-04-07T08:12:54;100423.22;;;11.00;72.29
6144;BME280;3103;49.492;8.474;2023-04-07T08:15:20;100425.59;;;11.30;72.22
6144;BME280;3103;49.492;8.474;2023-04-07T08:17:47;100431.41;;;11.95;70.37
6144;BME280;3103;49.492;8.474;2023-04-07T08:20:14;100429.34;;;11.46;70.64
6144;BME280;3103;49.492;8.474;2023-04-07T08:22:41;100434.69;;;11.63;69.72
6144;BME280;3103;49.492;8.474;2023-04-07T08:25:08;100437.72;;;10.99;72.25
6144;BME280;3103;49.492;8.474;2023-04-07T08:27:36;100437.84;;;10.93;72.00
6144;BME280;3103;49.492;8.474;2023-04-07T08:30:04;100437.00;;;11.38;70.66
6144;BME280;3103;49.492;8.474;2023-04-07T08:32:39;100433.78;;;11.91;68.66
6144;BME280;3103;49.492;8.474;2023-04-07T08:35:07;100439.84;;;12.20;67.55
6144;BME280;3103;49.492;8.474;2023-04-07T08:37:34;100443.59;;;12.19;68.26
6144;BME280;3103;49.492;8.474;2023-04-07T08:40:02;100435.56;;;12.02;67.97
6144;BME280;3103;49.492;8.474;2023-04-07T08:42:31;100437.22;;;12.47;67.70
6144;BME280;3103;49.492;8.474;2023-04-07T08:45:03;100448.13;;;12.57;66.43
6144;BME280;3103;49.492;8.474;2023-04-07T08:47:31;100441.53;;;12.70;65.62
6144;BME280;3103;49.492;8.474;2023-04-07T08:50:01;100453.00;;;12.38;66.77
6144;BME280;3103;49.492;8.474;2023-04-07T08:52:53;100449.09;;;12.51;66.29
6144;BME280;3103;49.492;8.474;2023-04-07T08:55:20;100451.06;;;12.56;66.48
6144;BME280;3103;49.492;8.474;2023-04-07T08:57:47;100451.44;;;12.91;64.86
6144;BME280;3103;49.492;8.474;2023-04-07T09:00:14;100452.13;;;12.55;66.21
6144;BME280;3103;49.492;8.474;2023-04-07T09:02:42;100453.25;;;12.59;67.32
6144;BME280;3103;49.492;8.474;2023-04-07T09:05:12;100448.97;;;12.63;66.57
6144;BME280;3103;49.492;8.474;2023-04-07T09:07:41;100453.25;;;12.59;66.73
6144;BME280;3103;49.492;8.474;2023-04-07T09:10:09;100453.25;;;12.59;66.62
6144;BME280;3103;49.492;8.474;2023-04-07T09:12:36;100459.03;;;12.45;67.17
6144;BME280;3103;49.492;8.474;2023-04-07T09:15:05;100463.53;;;12.62;66.82
6144;BME280;3103;49.492;8.474;2023-04-07T09:17:32;100466.03;;;12.68;66.98
6144;BME280;3103;49.492;8.474;2023-04-07T09:19:59;100473.53;;;12.66;67.73
6144;BME280;3103;49.492;8.474;2023-04-07T09:22:45;100466.16;;;12.57;67.83
6144;BME280;3103;49.492;8.474;2023-04-07T09:25:23;100468.34;;;12.82;67.44
6144;BME280;3103;49.492;8.474;2023-04-07T09:28:01;100466.38;;;12.77;67.08
6144;BME280;3103;49.492;8.474;2023-04-07T09:30:30;100467.09;;;12.67;67.87
6144;BME280;3103;49.492;8.474;2023-04-07T09:32:58;100471.19;;;12.26;69.37
6144;BME280;3103;49.492;8.474;2023-04-07T09:35:25;100463.47;;;12.35;69.38
6144;BME280;3103;49.492;8.474;2023-04-07T09:38:06;100464.28;;;12.57;68.19
6144;BME280;3103;49.492;8.474;2023-04-07T09:40:34;100465.44;;;12.66;68.63
6144;BME280;3103;49.492;8.474;2023-04-07T09:43:03;100465.03;;;12.53;68.99
6144;BME280;3103;49.492;8.474;2023-04-07T09:45:30;100462.41;;;12.58;68.55
6144;BME280;3103;49.492;8.474;2023-04-07T09:48:05;100472.75;;;12.44;69.22
6144;BME280;3103;49.492;8.474;2023-04-07T09:50:35;100462.34;;;12.31;70.05
6144;BME280;3103;49.492;8.474;2023-04-07T09:53:02;100465.91;;;12.36;70.60
6144;BME280;3103;49.492;8.474;2023-04-07T09:55:30;100467.53;;;12.15;70.83
6144;BME280;3103;49.492;8.474;2023-04-07T09:57:57;100459.44;;;12.15;70.74
6144;BME280;3103;49.492;8.474;2023-04-07T10:00:24;100463.94;;;12.10;71.74
6144;BME280;3103;49.492;8.474;2023-04-07T10:02:52;100466.63;;;12.10;71.47
6144;BME280;3103;49.492;8.474;2023-04-07T10:05:19;100469.19;;;12.00;71.97
6144;BME280;3103;49.492;8.474;2023-04-07T10:07:47;100468.03;;;12.12;71.61
6144;BME280;3103;49.492;8.474;2023-04-07T10:10:14;100467.09;;;12.24;71.92
6144;BME280;3103;49.492;8.474;2023-04-07T10:12:42;100472.34;;;12.35;72.66
6144;BME280;3103;49.492;8.474;2023-04-07T10:15:12;100478.00;;;12.34;72.91
6144;BME280;3103;49.492;8.474;2023-04-07T10:17:48;100478.13;;;12.44;72.20
6144;BME280;3103;49.492;8.474;2023-04-07T10:20:18;100480.06;;;12.48;72.86
6144;BME280;3103;49.492;8.474;2023-04-07T10:22:50;100476.47;;;12.87;71.00
6144;BME280;3103;49.492;8.474;2023-04-07T10:25:20;100481.06;;;12.86;71.34
6144;BME280;3103;49.492;8.474;2023-04-07T10:27:58;100482.59;;;13.04;71.86
6144;BME280;3103;49.492;8.474;2023-04-07T10:30:28;100488.91;;;13.15;71.61
6144;BME280;3103;49.492;8.474;2023-04-07T10:32:56;100491.16;;;13.23;71.86
6144;BME280;3103;49.492;8.474;2023-04-07T10:35:23;100487.97;;;13.04;72.01
6144;BME280;3103;49.492;8.474;2023-04-07T10:38:09;100481.25;;;13.06;71.75
6144;BME280;3103;49.492;8.474;2023-04-07T10:40:37;100483.13;;;12.79;71.48
6144;BME280;3103;49.492;8.474;2023-04-07T10:43:05;100481.00;;;12.81;72.34
6144;BME280;3103;49.492;8.474;2023-04-07T10:48:15;100491.84;;;12.86;72.88
6144;BME280;3103;49.492;8.474;2023-04-07T10:50:44;100488.28;;;13.07;72.21
6144;BME280;3103;49.492;8.474;2023-04-07T10:53:12;100481.91;;;12.92;70.08
6144;BME280;3103;49.492;8.474;2023-04-07T10:55:40;100495.59;;;12.85;68.80
6144;BME280;3103;49.492;8.474;2023-04-07T10:58:29;100496.13;;;12.82;68.35
6144;BME280;3103;49.492;8.474;2023-04-07T11:03:33;100493.00;;;12.68;69.13
6144;BME280;3103;49.492;8.474;2023-04-07T11:06:08;100491.97;;;12.53;68.60
6144;BME280;3103;49.492;8.474;2023-04-07T11:08:40;100495.97;;;12.50;70.28
6144;BME280;3103;49.492;8.474;2023-04-07T11:11:15;100495.75;;;12.73;68.81
6144;BME280;3103;49.492;8.474;2023-04-07T11:13:43;100488.63;;;12.89;68.73
6144;BME280;3103;49.492;8.474;2023-04-07T11:16:12;100485.16;;;12.94;69.49
6144;BME280;3103;49.492;8.474;2023-04-07T11:18:40;100490.06;;;12.97;68.92
6144;BME280;3103;49.492;8.474;2023-04-07T11:21:08;100490.53;;;12.89;69.38
6144;BME280;3103;49.492;8.474;2023-04-07T11:23:43;100487.84;;;12.67;70.61
6144;BME280;3103;49.492;8.474;2023-04-07T11:26:13;100493.97;;;12.84;70.09
6144;BME280;3103;49.492;8.474;2023-04-07T11:28:48;100489.28;;;12.74;71.69
6144;BME280;3103;49.492;8.474;2023-04-07T11:31:29;100488.50;;;13.01;71.38
6144;BME280;3103;49.492;8.474;2023-04-07T11:34:01;100498.38;;;13.17;69.89
6144;BME280;3103;49.492;8.474;2023-04-07T11:36:34;100498.91;;;12.92;70.02
6144;BME280;3103;49.492;8.474;2023-04-07T11:39:01;100491.53;;;12.83;69.41
6144;BME280;3103;49.492;8.474;2023-04-07T11:41:31;100497.31;;;12.69;69.73
6144;BME280;3103;49.492;8.474;2023-04-07T11:44:09;100498.19;;;12.75;70.15
6144;BME280;3103;49.492;8.474;2023-04-07T11:46:51;100494.88;;;12.68;68.81
6144;BME280;3103;49.492;8.474;2023-04-07T11:49:21;100503.31;;;12.76;68.95
6144;BME280;3103;49.492;8.474;2023-04-07T11:51:59;100502.28;;;12.56;69.54
6144;BME280;3103;49.492;8.474;2023-04-07T11:54:27;100507.72;;;12.61;69.68
6144;BME280;3103;49.492;8.474;2023-04-07T11:57:03;100507.28;;;12.69;68.97
6144;BME280;3103;49.492;8.474;2023-04-07T11:59:30;100502.84;;;12.58;69.58
6144;BME280;3103;49.492;8.474;2023-04-07T12:01:58;100503.91;;;12.57;69.63
6144;BME280;3103;49.492;8.474;2023-04-07T12:04:25;100515.50;;;12.57;70.43
6144;BME280;3103;49.492;8.474;2023-04-07T12:06:52;100514.69;;;12.57;71.08
6144;BME280;3103;49.492;8.474;2023-04-07T12:09:29;100512.81;;;12.57;71.00
6144;BME280;3103;49.492;8.474;2023-04-07T12:11:56;100517.13;;;12.58;71.93
6144;BME280;3103;49.492;8.474;2023-04-07T12:14:24;100512.91;;;12.45;71.99
6144;BME280;3103;49.492;8.474;2023-04-07T12:16:52;100512.66;;;12.47;72.56
6144;BME280;3103;49.492;8.474;2023-04-07T12:19:25;100509.00;;;12.36;72.88
6144;BME280;3103;49.492;8.474;2023-04-07T12:21:57;100516.53;;;12.34;73.31
6144;BME280;3103;49.492;8.474;2023-04-07T12:24:23;100516.28;;;12.36;73.35
6144;BME280;3103;49.492;8.474;2023-04-07T12:26:50;100527.31;;;12.34;73.55
6144;BME280;3103;49.492;8.474;2023-04-07T12:29:17;100518.25;;;12.40;73.13
6144;BME280;3103;49.492;8.474;2023-04-07T12:31:46;100520.97;;;12.24;73.22
6144;BME280;3103;49.492;8.474;2023-04-07T12:34:16;100532.66;;;11.96;74.38
6144;BME280;3103;49.492;8.474;2023-04-07T12:36:43;100530.50;;;12.31;74.54
6144;BME280;3103;49.492;8.474;2023-04-07T12:39:10;100525.06;;;12.26;73.88
6144;BME280;3103;49.492;8.474;2023-04-07T12:41:37;100526.13;;;12.47;73.11
6144;BME280;3103;49.492;8.474;2023-04-07T12:44:05;100535.94;;;12.75;72.45
6144;BME280;3103;49.492;8.474;2023-04-07T12:46:32;100531.38;;;13.02;73.23
6144;BME280;3103;49.492;8.474;2023-04-07T12:48:58;100537.63;;;13.08;71.90
6144;BME280;3103;49.492;8.474;2023-04-07T12:51:27;100540.88;;;12.83;73.31
6144;BME280;3103;49.492;8.474;2023-04-07T12:53:54;100531.91;;;12.99;72.53
6144;BME280;3103;49.492;8.474;2023-04-07T12:56:21;100541.31;;;13.19;72.64
6144;BME280;3103;49.492;8.474;2023-04-07T12:58:48;100533.09;;;13.35;72.15
6144;BME280;3103;49.492;8.474;2023-04-07T13:01:15;100535.31;;;13.17;71.46
6144;BME280;3103;49.492;8.474;2023-04-07T13:03:42;100538.09;;;13.22;70.13
6144;BME280;3103;49.492;8.474;2023-04-07T13:06:09;100537.53;;;13.20;70.13
6144;BME280;3103;49.492;8.474;2023-04-07T13:08:38;100538.00;;;13.39;69.28
6144;BME280;3103;49.492;8.474;2023-04-07T13:11:05;100529.78;;;13.23;69.66
6144;BME280;3103;49.492;8.474;2023-04-07T13:13:33;100536.53;;;13.53;68.33
6144;BME280;3103;49.492;8.474;2023-04-07T13:16:00;100543.22;;;13.50;69.34
6144;BME280;3103;49.492;8.474;2023-04-07T13:18:27;100539.13;;;13.43;69.27
6144;BME280;3103;49.492;8.474;2023-04-07T13:20:54;100540.22;;;13.20;69.75
6144;BME280;3103;49.492;8.474;2023-04-07T13:23:41;100539.00;;;13.32;69.98
6144;BME280;3103;49.492;8.474;2023-04-07T13:26:19;100540.91;;;13.32;70.62
6144;BME280;3103;49.492;8.474;2023-04-07T13:28:46;100542.03;;;13.14;70.62
6144;BME280;3103;49.492;8.474;2023-04-07T13:31:13;100536.09;;;12.90;70.59
6144;BME280;3103;49.492;8.474;2023-04-07T13:33:42;100538.38;;;12.76;70.54
6144;BME280;3103;49.492;8.474;2023-04-07T13:36:09;100550.84;;;12.83;71.01